Terminal Aerodrome Forecast
Issued by NWS

Current Version | Previous Version | Text Only | Print | Product List | Glossary On
Versions: 1 2 3 4 5 6 7 8 9 10 11 12 13 14 15
000
FTUS43 KDLH 182325
TAFHIB
TAF
KHIB 182325Z 1900/1924 26008G14KT P6SM SKC
     FM190200 26008KT P6SM SKC WS020/28040KT
     FM190900 26006KT P6SM FEW250
     FM191800 23007G17KT P6SM SKC
     FM192200 20009KT P6SM SKC=

USA.gov is the U.S. government's official web portal to all federal, state and local government web resources and services.